createdAt,value
2019-03-15T00:01:58.023Z,4.20
2019-03-15T00:04:25.270Z,3.30
2019-03-15T00:06:52.640Z,4.27
2019-03-15T00:09:19.890Z,3.37
2019-03-15T00:11:47.133Z,2.83
2019-03-15T00:14:14.405Z,3.47
2019-03-15T00:16:41.918Z,3.07
2019-03-15T00:19:09.158Z,2.73
2019-03-15T00:21:36.429Z,3.70
2019-03-15T00:24:03.684Z,3.37
2019-03-15T00:26:30.954Z,3.80
2019-03-15T00:28:58.207Z,3.80
2019-03-15T00:31:25.802Z,2.87
2019-03-15T00:33:53.079Z,2.47
2019-03-15T00:36:20.318Z,3.13
2019-03-15T00:38:47.565Z,4.00
2019-03-15T00:41:14.849Z,3.07
2019-03-15T00:43:42.099Z,2.70
2019-03-15T00:46:09.594Z,2.70
2019-03-15T00:48:36.869Z,3.37
2019-03-15T00:51:04.119Z,3.13
2019-03-15T00:53:31.394Z,3.00
2019-03-15T00:55:58.654Z,2.93
2019-03-15T00:58:25.922Z,3.10
2019-03-15T01:00:53.167Z,3.17
2019-03-15T01:03:20.442Z,3.37
2019-03-15T01:05:47.690Z,3.00
2019-03-15T01:08:14.958Z,4.30
2019-03-15T01:10:42.229Z,3.53
2019-03-15T01:13:09.479Z,3.33
2019-03-15T01:15:37.002Z,3.73
2019-03-15T01:18:04.247Z,3.03
2019-03-15T01:20:31.739Z,2.70
2019-03-15T01:22:59.145Z,3.57
2019-03-15T01:25:26.436Z,2.93
2019-03-15T01:27:53.717Z,3.23
2019-03-15T01:30:20.954Z,3.20
2019-03-15T01:32:48.226Z,3.00
2019-03-15T01:35:15.501Z,3.07
2019-03-15T01:37:42.783Z,3.57
2019-03-15T01:40:10.034Z,3.20
2019-03-15T01:42:37.315Z,3.87
2019-03-15T01:45:05.059Z,3.20
2019-03-15T01:47:32.295Z,2.63
2019-03-15T01:49:59.577Z,3.47
2019-03-15T01:52:27.090Z,3.10
2019-03-15T01:54:54.367Z,3.80
2019-03-15T01:57:21.858Z,3.53
2019-03-15T01:59:49.101Z,2.87
2019-03-15T02:02:16.382Z,3.43
2019-03-15T02:04:43.917Z,3.13
2019-03-15T02:07:11.466Z,2.80
2019-03-15T02:09:38.710Z,3.30
2019-03-15T02:12:05.985Z,3.77
2019-03-15T02:14:33.232Z,3.90
2019-03-15T02:17:00.654Z,3.27
2019-03-15T02:19:27.934Z,2.97
2019-03-15T02:21:55.206Z,3.30
2019-03-15T02:24:22.475Z,3.43
2019-03-15T02:26:50.009Z,3.90
2019-03-15T02:29:17.251Z,3.83
2019-03-15T02:31:44.521Z,4.10
2019-03-15T02:34:11.771Z,4.13
2019-03-15T02:36:40.150Z,4.40
2019-03-15T02:39:07.847Z,4.63
2019-03-15T02:41:35.087Z,4.03
2019-03-15T02:44:02.609Z,3.93
2019-03-15T02:46:29.981Z,4.10
2019-03-15T02:48:57.243Z,3.73
2019-03-15T02:51:24.513Z,5.13
2019-03-15T02:53:51.758Z,4.10
2019-03-15T02:56:19.030Z,3.47
2019-03-15T02:58:46.302Z,5.20
2019-03-15T03:01:13.636Z,3.90
2019-03-15T03:03:40.975Z,3.93
2019-03-15T03:06:08.225Z,3.97
2019-03-15T03:08:35.940Z,3.63
2019-03-15T03:11:03.256Z,3.67
2019-03-15T03:13:30.521Z,4.10
2019-03-15T03:15:57.792Z,3.97
2019-03-15T03:18:25.132Z,3.70
2019-03-15T03:20:52.795Z,4.27
2019-03-15T03:23:20.076Z,4.20
2019-03-15T03:25:47.325Z,3.43
2019-03-15T03:28:14.612Z,4.40
2019-03-15T03:30:41.893Z,3.67
2019-03-15T03:33:09.193Z,3.80
2019-03-15T03:35:36.490Z,4.07
2019-03-15T03:38:04.002Z,3.80
2019-03-15T03:40:31.274Z,3.57
2019-03-15T03:42:58.521Z,3.50
2019-03-15T03:45:26.063Z,3.97
2019-03-15T03:47:53.305Z,3.63
2019-03-15T03:50:20.818Z,3.20
2019-03-15T03:52:48.089Z,3.70
2019-03-15T03:55:15.338Z,3.53
2019-03-15T03:57:42.699Z,3.47
2019-03-15T04:00:14.318Z,3.43
2019-03-15T04:02:41.638Z,3.00
2019-03-15T04:05:08.988Z,3.97
2019-03-15T04:07:36.526Z,4.07
2019-03-15T04:10:05.691Z,3.33
2019-03-15T04:12:33.095Z,3.93
2019-03-15T04:15:00.367Z,2.97
2019-03-15T04:17:27.613Z,4.30
2019-03-15T04:19:54.884Z,3.53
2019-03-15T04:22:22.135Z,3.57
2019-03-15T04:24:49.416Z,3.37
2019-03-15T04:27:16.658Z,3.27
2019-03-15T04:29:43.913Z,4.33
2019-03-15T04:32:11.194Z,3.90
2019-03-15T04:34:38.446Z,3.40
2019-03-15T04:37:09.057Z,3.60
2019-03-15T04:39:34.947Z,3.63
2019-03-15T04:42:02.226Z,4.37
2019-03-15T04:44:29.723Z,3.60
2019-03-15T04:46:57.002Z,3.20
2019-03-15T04:49:24.561Z,3.37
2019-03-15T04:51:51.823Z,4.10
2019-03-15T04:54:19.101Z,3.87
2019-03-15T04:56:46.350Z,3.33
2019-03-15T04:59:13.624Z,4.43
2019-03-15T05:01:40.865Z,4.30
2019-03-15T05:04:08.141Z,5.23
2019-03-15T05:06:35.650Z,3.90
2019-03-15T05:09:03.400Z,3.60
2019-03-15T05:11:30.772Z,3.50
2019-03-15T05:13:58.993Z,4.53
2019-03-15T05:16:26.770Z,4.20
2019-03-15T05:18:54.029Z,3.67
2019-03-15T05:21:21.279Z,3.37
2019-03-15T05:23:48.555Z,4.20
2019-03-15T05:26:15.827Z,3.60
2019-03-15T05:28:43.074Z,3.30
2019-03-15T05:31:10.621Z,4.10
2019-03-15T05:33:38.161Z,3.40
2019-03-15T05:36:05.397Z,4.00
2019-03-15T05:38:34.841Z,3.87
2019-03-15T05:41:01.641Z,3.83
2019-03-15T05:43:28.922Z,2.93
2019-03-15T05:45:56.255Z,3.23
2019-03-15T05:48:23.524Z,2.90
2019-03-15T05:50:50.773Z,4.28
2019-03-15T05:53:18.050Z,3.83
2019-03-15T05:55:45.324Z,3.43
2019-03-15T05:58:13.142Z,3.60
2019-03-15T06:00:40.414Z,3.67
2019-03-15T06:03:07.686Z,3.27
2019-03-15T06:05:34.959Z,3.27
2019-03-15T06:08:02.257Z,5.10
2019-03-15T06:10:29.506Z,3.00
2019-03-15T06:12:56.754Z,3.57
2019-03-15T06:15:24.034Z,2.70
2019-03-15T06:17:51.309Z,4.07
2019-03-15T06:20:18.598Z,3.30
2019-03-15T06:22:46.163Z,3.33
2019-03-15T06:25:13.531Z,3.00
2019-03-15T06:27:40.784Z,3.00
2019-03-15T06:30:11.817Z,3.67
2019-03-15T06:32:39.092Z,3.23
2019-03-15T06:35:06.931Z,3.70
2019-03-15T06:37:34.206Z,3.07
2019-03-15T06:40:01.472Z,3.10
2019-03-15T06:42:28.810Z,4.37
2019-03-15T06:44:58.221Z,3.67
2019-03-15T06:47:25.304Z,3.70
2019-03-15T06:49:52.550Z,3.60
2019-03-15T06:52:19.818Z,3.23
2019-03-15T06:54:47.102Z,3.40
2019-03-15T06:57:14.355Z,3.63
2019-03-15T06:59:41.625Z,3.97
2019-03-15T07:02:08.878Z,4.13
2019-03-15T07:04:36.414Z,4.40
2019-03-15T07:07:03.757Z,5.03
2019-03-15T07:09:31.111Z,3.90
2019-03-15T07:12:08.878Z,3.37
2019-03-15T07:14:27.422Z,3.73
2019-03-15T07:16:54.675Z,4.40
2019-03-15T07:19:27.643Z,4.80
2019-03-15T07:21:51.172Z,4.00
2019-03-15T07:24:25.224Z,2.93
2019-03-15T07:26:47.486Z,3.17
2019-03-15T07:29:14.998Z,3.10
2019-03-15T07:31:42.287Z,3.20
2019-03-15T07:34:09.786Z,2.90
2019-03-15T07:36:37.424Z,2.57
2019-03-15T07:39:06.102Z,3.00
2019-03-15T07:41:33.396Z,5.00
2019-03-15T07:44:00.893Z,2.60
2019-03-15T07:46:28.142Z,2.83
2019-03-15T07:48:55.668Z,2.63
2019-03-15T07:51:23.159Z,2.70
2019-03-15T07:53:50.434Z,2.73
2019-03-15T07:56:17.686Z,2.77
2019-03-15T07:58:44.957Z,2.50
2019-03-15T08:01:12.452Z,3.10
2019-03-15T08:03:39.718Z,2.43
2019-03-15T08:06:07.211Z,2.30
2019-03-15T08:08:34.494Z,2.30
2019-03-15T08:11:01.936Z,2.40
2019-03-15T08:13:29.178Z,2.30
2019-03-15T08:15:56.714Z,2.30
2019-03-15T08:18:23.976Z,1.83
2019-03-15T08:20:51.293Z,2.00
2019-03-15T08:23:18.566Z,2.13
2019-03-15T08:25:45.818Z,2.00
2019-03-15T08:28:13.156Z,2.20
2019-03-15T08:30:40.677Z,2.27
2019-03-15T08:33:10.538Z,1.67
2019-03-15T08:35:36.920Z,1.60
2019-03-15T08:38:05.499Z,2.03
2019-03-15T08:40:32.921Z,1.80
2019-03-15T08:43:00.518Z,1.70
2019-03-15T08:45:27.765Z,1.77
2019-03-15T08:47:55.287Z,1.23
2019-03-15T08:50:24.524Z,1.30
2019-03-15T08:52:54.014Z,1.30
2019-03-15T08:55:21.090Z,1.60
2019-03-15T08:57:48.369Z,1.00
2019-03-15T09:00:16.326Z,1.50
2019-03-15T09:02:43.605Z,1.60
2019-03-15T09:05:11.332Z,1.40
2019-03-15T09:07:38.594Z,1.50
2019-03-15T09:10:22.416Z,1.60
2019-03-15T09:12:42.738Z,1.40
2019-03-15T09:15:10.745Z,1.33
2019-03-15T09:17:38.016Z,1.27
2019-03-15T09:20:06.667Z,1.53
2019-03-15T09:22:33.906Z,0.90
2019-03-15T09:25:01.155Z,1.27
2019-03-15T09:27:28.424Z,1.33
2019-03-15T09:29:55.697Z,1.37
2019-03-15T09:32:23.021Z,0.80
2019-03-15T09:34:50.298Z,0.90
2019-03-15T09:37:17.538Z,0.90
2019-03-15T09:39:45.059Z,1.00
2019-03-15T09:42:12.332Z,0.80
2019-03-15T09:44:39.574Z,1.10
2019-03-15T09:47:06.849Z,0.60
2019-03-15T09:49:34.090Z,1.10
2019-03-15T09:52:01.584Z,0.70
2019-03-15T09:54:28.862Z,0.80
2019-03-15T09:56:56.113Z,0.60
2019-03-15T09:59:23.381Z,0.80
2019-03-15T10:01:50.625Z,0.73
2019-03-15T10:04:17.899Z,1.20
2019-03-15T10:06:45.142Z,1.03
2019-03-15T10:09:12.421Z,0.60
2019-03-15T10:11:39.662Z,0.83
2019-03-15T10:14:06.911Z,0.70
2019-03-15T10:16:34.185Z,0.50
2019-03-15T10:19:01.574Z,0.60
2019-03-15T10:21:29.077Z,0.50
2019-03-15T10:23:56.314Z,0.70
2019-03-15T10:26:23.590Z,0.60
2019-03-15T10:28:50.835Z,0.53
2019-03-15T10:31:18.112Z,0.50
2019-03-15T10:33:50.230Z,0.53
2019-03-15T10:36:14.353Z,0.43
2019-03-15T10:38:41.599Z,0.60
2019-03-15T10:41:08.880Z,0.50
2019-03-15T10:43:36.215Z,0.50
2019-03-15T10:46:06.014Z,0.50
2019-03-15T10:48:32.457Z,0.40
2019-03-15T10:50:59.730Z,0.50
2019-03-15T10:53:27.234Z,0.50
2019-03-15T10:56:00.009Z,0.50
2019-03-15T10:58:23.487Z,0.40
2019-03-15T11:00:50.765Z,0.50
2019-03-15T11:03:18.002Z,0.50
2019-03-15T11:05:45.522Z,0.60
2019-03-15T11:08:12.765Z,0.50
2019-03-15T11:10:40.051Z,0.60
2019-03-15T11:13:07.297Z,0.40
2019-03-15T11:15:34.538Z,0.50
2019-03-15T11:18:02.087Z,0.50
2019-03-15T11:20:29.331Z,0.37
2019-03-15T11:22:56.594Z,0.50
2019-03-15T11:25:24.094Z,0.40
2019-03-15T11:27:51.610Z,0.40
2019-03-15T11:30:19.134Z,0.43
2019-03-15T11:32:46.411Z,0.40
2019-03-15T11:35:13.726Z,0.50
2019-03-15T11:37:41.258Z,0.40
2019-03-15T11:40:14.000Z,0.40
2019-03-15T11:42:41.159Z,0.40
2019-03-15T11:45:09.326Z,0.50
2019-03-15T11:48:00.636Z,0.40
2019-03-15T11:50:07.086Z,0.40
2019-03-15T11:52:34.358Z,0.50
2019-03-15T11:55:01.648Z,0.40
2019-03-15T11:57:29.146Z,0.50
2019-03-15T11:59:56.395Z,0.50
2019-03-15T12:02:23.656Z,0.40
2019-03-15T12:04:51.178Z,0.47
2019-03-15T12:07:18.453Z,0.40
2019-03-15T12:09:45.695Z,0.30
2019-03-15T12:12:12.971Z,0.50
2019-03-15T12:14:41.388Z,0.40
2019-03-15T12:17:08.767Z,0.40
2019-03-15T12:19:36.040Z,0.47
2019-03-15T12:22:06.519Z,0.40
2019-03-15T12:24:32.529Z,0.40
2019-03-15T12:27:00.021Z,0.40
2019-03-15T12:29:27.551Z,0.40
2019-03-15T12:31:54.798Z,0.43
2019-03-15T12:34:22.038Z,0.40
2019-03-15T12:36:49.310Z,0.40
2019-03-15T12:39:16.588Z,0.40
2019-03-15T12:41:43.867Z,0.37
2019-03-15T12:44:11.105Z,0.47
2019-03-15T12:46:38.627Z,0.50
2019-03-15T12:49:06.131Z,0.60
2019-03-15T12:51:33.438Z,0.43
2019-03-15T12:54:00.972Z,0.50
2019-03-15T12:56:28.499Z,0.60
2019-03-15T12:58:56.010Z,0.40
2019-03-15T13:01:23.551Z,0.50
2019-03-15T13:03:51.063Z,0.40
2019-03-15T13:06:18.406Z,0.50
2019-03-15T13:08:47.345Z,0.40
2019-03-15T13:11:14.778Z,0.60
2019-03-15T13:13:42.038Z,0.40
2019-03-15T13:16:09.311Z,0.50
2019-03-15T13:18:36.814Z,0.40
2019-03-15T13:21:04.097Z,0.50
2019-03-15T13:23:31.343Z,0.50
2019-03-15T13:25:58.619Z,0.40
2019-03-15T13:28:25.868Z,0.40
2019-03-15T13:30:53.105Z,0.50
2019-03-15T13:33:21.191Z,0.50
2019-03-15T13:35:48.593Z,0.50
2019-03-15T13:38:15.869Z,0.43
2019-03-15T13:40:43.137Z,0.47
2019-03-15T13:43:10.501Z,0.40
2019-03-15T13:45:38.012Z,0.50
2019-03-15T13:48:05.282Z,0.47
2019-03-15T13:50:32.558Z,0.57
2019-03-15T13:52:59.806Z,0.60
2019-03-15T13:55:27.326Z,0.60
2019-03-15T13:57:54.571Z,0.40
2019-03-15T14:00:21.846Z,0.40
2019-03-15T14:02:49.247Z,0.40
2019-03-15T14:05:16.507Z,0.50
2019-03-15T14:07:43.835Z,0.47
2019-03-15T14:10:12.647Z,0.40
2019-03-15T14:12:39.899Z,0.60
2019-03-15T14:15:08.689Z,0.60
2019-03-15T14:17:35.962Z,0.40
2019-03-15T14:20:04.467Z,0.50
2019-03-15T14:22:31.794Z,0.40
2019-03-15T14:24:59.406Z,0.60
2019-03-15T14:27:36.909Z,0.60
2019-03-15T14:29:56.259Z,0.90
2019-03-15T14:32:23.538Z,0.60
2019-03-15T14:34:51.094Z,0.50
2019-03-15T14:37:18.559Z,0.40
2019-03-15T14:39:46.528Z,0.40
2019-03-15T14:42:14.358Z,0.50
2019-03-15T14:44:41.740Z,0.40
2019-03-15T14:47:09.037Z,0.50
2019-03-15T14:49:38.192Z,0.33
2019-03-15T14:52:05.323Z,0.60
2019-03-15T14:54:32.570Z,0.53
2019-03-15T14:56:59.846Z,0.40
2019-03-15T14:59:27.095Z,0.40
2019-03-15T15:01:54.370Z,0.40
2019-03-15T15:04:22.498Z,0.40
2019-03-15T15:06:50.022Z,0.40
2019-03-15T15:09:17.266Z,0.40
2019-03-15T15:11:44.513Z,0.40
2019-03-15T15:14:12.041Z,0.50
2019-03-15T15:16:39.282Z,0.40
2019-03-15T15:19:06.553Z,0.50
2019-03-15T15:21:33.797Z,0.40
2019-03-15T15:24:01.072Z,0.47
2019-03-15T15:26:28.314Z,0.40
2019-03-15T15:28:55.589Z,0.50
2019-03-15T15:31:22.833Z,0.40
2019-03-15T15:33:50.074Z,0.30
2019-03-15T15:36:17.414Z,0.50
2019-03-15T15:38:44.688Z,0.50
2019-03-15T15:41:12.017Z,0.40
2019-03-15T15:43:39.266Z,0.37
2019-03-15T15:46:06.809Z,0.40
2019-03-15T15:48:34.381Z,0.40
2019-03-15T15:51:01.859Z,0.40
2019-03-15T15:53:29.166Z,0.40
2019-03-15T15:55:56.481Z,0.50
2019-03-15T15:58:23.751Z,0.30
2019-03-15T16:00:51.018Z,0.40
2019-03-15T16:03:18.555Z,0.50
2019-03-15T16:05:45.826Z,0.40
2019-03-15T16:08:13.071Z,0.60
2019-03-15T16:10:40.346Z,0.33
2019-03-15T16:13:17.269Z,0.50
2019-03-15T16:15:36.824Z,0.40
2019-03-15T16:18:04.351Z,0.50
2019-03-15T16:20:31.629Z,0.47
2019-03-15T16:22:58.871Z,0.40
2019-03-15T16:25:26.378Z,0.50
2019-03-15T16:27:53.654Z,0.50
2019-03-15T16:30:20.963Z,0.50
2019-03-15T16:32:48.226Z,0.40
2019-03-15T16:35:15.767Z,0.40
2019-03-15T16:37:43.006Z,0.30
2019-03-15T16:40:11.789Z,0.40
2019-03-15T16:42:39.126Z,0.47
2019-03-15T16:45:08.186Z,0.50
2019-03-15T16:47:35.461Z,0.43
2019-03-15T16:50:03.049Z,0.57
2019-03-15T16:52:30.321Z,0.50
2019-03-15T16:54:57.686Z,0.43
2019-03-15T16:57:24.922Z,0.50
2019-03-15T16:59:52.187Z,0.60
2019-03-15T17:02:19.452Z,0.50
2019-03-15T17:04:46.697Z,0.43
2019-03-15T17:07:13.966Z,0.40
2019-03-15T17:09:41.501Z,0.50
2019-03-15T17:12:08.774Z,0.50
2019-03-15T17:14:36.272Z,0.40
2019-03-15T17:17:03.800Z,0.50
2019-03-15T17:19:31.067Z,0.60
2019-03-15T17:21:58.310Z,0.50
2019-03-15T17:24:25.581Z,0.40
2019-03-15T17:26:52.843Z,0.40
2019-03-15T17:29:20.133Z,0.40
2019-03-15T17:31:47.380Z,0.40
2019-03-15T17:34:14.622Z,0.40
2019-03-15T17:36:41.893Z,0.53
2019-03-15T17:39:09.167Z,0.40
2019-03-15T17:41:36.409Z,0.40
2019-03-15T17:44:03.678Z,0.57
2019-03-15T17:46:31.027Z,0.50
2019-03-15T17:48:58.270Z,0.53
2019-03-15T17:51:25.542Z,0.40
2019-03-15T17:53:52.781Z,0.40
2019-03-15T17:56:20.132Z,0.50
2019-03-15T17:58:47.379Z,0.40
2019-03-15T18:01:14.923Z,0.50
2019-03-15T18:03:42.217Z,0.40
2019-03-15T18:06:09.797Z,0.47
2019-03-15T18:08:37.318Z,0.40
2019-03-15T18:11:04.885Z,0.30
2019-03-15T18:13:32.182Z,0.50
2019-03-15T18:15:59.747Z,0.40
2019-03-15T18:18:27.068Z,0.50
2019-03-15T18:20:54.645Z,0.50
2019-03-15T18:23:21.894Z,0.50
2019-03-15T18:25:49.174Z,0.40
2019-03-15T18:28:16.674Z,0.47
2019-03-15T18:30:43.998Z,0.50
2019-03-15T18:33:11.270Z,0.50
2019-03-15T18:35:38.524Z,0.40
2019-03-15T18:38:05.795Z,0.40
2019-03-15T18:40:33.038Z,0.47
2019-03-15T18:43:00.309Z,0.50
2019-03-15T18:45:27.561Z,0.47
2019-03-15T18:47:54.831Z,0.40
2019-03-15T18:50:23.864Z,0.50
2019-03-15T18:52:51.201Z,0.40
2019-03-15T18:55:18.474Z,0.43
2019-03-15T18:57:45.717Z,0.40
2019-03-15T19:00:14.534Z,0.70
2019-03-15T19:02:41.779Z,0.47
2019-03-15T19:05:09.309Z,0.50
2019-03-15T19:07:36.812Z,0.50
2019-03-15T19:10:05.618Z,0.50
2019-03-15T19:12:33.061Z,0.40
2019-03-15T19:15:00.405Z,0.50
2019-03-15T19:17:27.673Z,0.40
2019-03-15T19:19:55.283Z,0.50
2019-03-15T19:22:22.646Z,0.50
2019-03-15T19:24:50.798Z,0.50
2019-03-15T19:27:18.818Z,0.50
2019-03-15T19:29:53.720Z,0.40
2019-03-15T19:32:15.918Z,0.47
2019-03-15T19:34:43.260Z,0.50
2019-03-15T19:37:11.717Z,0.40
2019-03-15T19:39:39.141Z,0.50
2019-03-15T19:42:07.162Z,0.40
2019-03-15T19:44:34.810Z,0.50
2019-03-15T19:47:02.138Z,0.40
2019-03-15T19:49:29.503Z,0.50
2019-03-15T19:51:56.810Z,0.47
2019-03-15T19:54:24.081Z,0.50
2019-03-15T19:56:51.323Z,0.40
2019-03-15T19:59:18.845Z,0.40
2019-03-15T20:01:46.101Z,0.50
2019-03-15T20:04:13.370Z,0.67
2019-03-15T20:06:40.737Z,0.50
2019-03-15T20:09:08.034Z,0.57
2019-03-15T20:11:35.327Z,0.50
2019-03-15T20:14:02.838Z,0.50
2019-03-15T20:16:30.125Z,0.50
2019-03-15T20:18:57.392Z,0.50
2019-03-15T20:21:24.631Z,0.50
2019-03-15T20:23:52.173Z,0.60
2019-03-15T20:26:19.659Z,0.40
2019-03-15T20:28:46.929Z,0.40
2019-03-15T20:31:14.209Z,0.50
2019-03-15T20:33:41.461Z,0.50
2019-03-15T20:36:08.706Z,0.53
2019-03-15T20:38:35.983Z,0.50
2019-03-15T20:41:03.314Z,0.60
2019-03-15T20:43:30.562Z,0.50
2019-03-15T20:45:57.831Z,0.50
2019-03-15T20:48:25.074Z,0.60
2019-03-15T20:50:52.339Z,0.60
2019-03-15T20:53:19.603Z,0.60
2019-03-15T20:55:46.930Z,0.53
2019-03-15T20:58:14.453Z,0.50
2019-03-15T21:00:41.931Z,0.50
2019-03-15T21:03:09.467Z,0.50
2019-03-15T21:05:36.739Z,0.50
2019-03-15T21:08:04.249Z,0.47
2019-03-15T21:10:31.943Z,0.40
2019-03-15T21:12:59.198Z,0.50
2019-03-15T21:15:26.614Z,0.50
2019-03-15T21:17:54.163Z,0.60
2019-03-15T21:20:22.862Z,0.50
2019-03-15T21:22:50.502Z,0.50
2019-03-15T21:25:17.797Z,0.50
2019-03-15T21:27:53.656Z,0.50
2019-03-15T21:30:17.783Z,0.43
2019-03-15T21:32:45.178Z,0.47
2019-03-15T21:35:12.816Z,0.60
2019-03-15T21:37:40.096Z,0.60
2019-03-15T21:40:08.770Z,0.67
2019-03-15T21:42:36.151Z,0.83
2019-03-15T21:45:03.977Z,0.50
2019-03-15T21:47:31.226Z,0.60
2019-03-15T21:49:58.485Z,0.60
2019-03-15T21:52:26.019Z,0.67
2019-03-15T21:54:53.298Z,0.80
2019-03-15T21:57:20.549Z,0.70
2019-03-15T21:59:47.816Z,0.80
2019-03-15T22:02:15.089Z,0.70
2019-03-15T22:04:42.410Z,0.70
2019-03-15T22:07:09.946Z,0.70
2019-03-15T22:09:38.214Z,0.50
2019-03-15T22:12:05.620Z,0.50
2019-03-15T22:14:32.930Z,0.70
2019-03-15T22:17:00.752Z,0.60
2019-03-15T22:19:28.102Z,0.67
2019-03-15T22:21:55.815Z,0.60
2019-03-15T22:24:23.416Z,0.70
2019-03-15T22:26:50.693Z,0.53
2019-03-15T22:29:18.055Z,0.50
2019-03-15T22:31:45.553Z,0.70
2019-03-15T22:34:12.826Z,0.53
2019-03-15T22:36:40.077Z,0.60
2019-03-15T22:39:07.604Z,0.63
2019-03-15T22:41:35.911Z,0.70
2019-03-15T22:44:03.375Z,0.60
2019-03-15T22:46:30.875Z,0.60
2019-03-15T22:48:58.109Z,0.60
2019-03-15T22:51:25.373Z,0.50
2019-03-15T22:53:52.660Z,0.83
2019-03-15T22:56:19.910Z,0.60
2019-03-15T22:58:47.403Z,0.70
2019-03-15T23:01:14.930Z,0.50
2019-03-15T23:03:42.442Z,0.73
2019-03-15T23:06:09.726Z,0.70
2019-03-15T23:08:36.971Z,0.70
2019-03-15T23:11:04.210Z,0.70
2019-03-15T23:13:31.739Z,0.60
2019-03-15T23:15:59.061Z,0.70
2019-03-15T23:18:26.589Z,0.50
2019-03-15T23:20:54.073Z,0.50
2019-03-15T23:23:24.097Z,0.50
2019-03-15T23:25:50.707Z,0.50
2019-03-15T23:28:18.114Z,0.60
2019-03-15T23:30:45.391Z,0.60
2019-03-15T23:33:12.669Z,0.60
2019-03-15T23:35:53.456Z,0.80
2019-03-15T23:38:08.907Z,0.60
2019-03-15T23:40:36.439Z,0.70
2019-03-15T23:43:03.687Z,0.60
2019-03-15T23:45:30.953Z,0.67
2019-03-15T23:47:58.220Z,0.67
2019-03-15T23:50:25.719Z,0.50
2019-03-15T23:52:52.998Z,0.80
2019-03-15T23:55:20.241Z,0.70
2019-03-15T23:57:48.417Z,0.60
